Terminal Aerodrome Forecast
Issued by NWS

Home | Current Version | Previous Version | Text Only | Print | Product List | Glossary Off
Versions: 1 2 3 4 5 6 7 8 9 10 11 12 13 14 15 16 17 18 19 20 21 22 23

000
FTUS43 KBIS 290500
TAFMOT
TAF
KMOT 290536Z 2906/3006 02010KT P6SM SCT015 BKN025 OVC035
      TEMPO 2906/2909 5SM BR SCT009 BKN015 OVC025
     FM290900 04009KT 4SM BR SCT004 OVC007
     FM291800 10012KT P6SM SCT007 BKN020
     FM300200 14010KT P6SM SCT007 OVC012=

USA.gov is the U.S. government's official web portal to all federal, state and local government web resources and services.